^^

Nearby METAR Reports

 

LIRH - Frosinone (it-Af, Italy
Distance from station: SO 5km
Dati ricevuti: 19/05/2022 10:55
Sereno
Sereno
 Vento da SSE
Vento: SSE 7 km/h
Temperatura: 23°C
P.to Rugiada: 10°C
Umidità: 44%
Barometro: 1024 hPa
Summary: Sereno
Visibility: greater than 10 km
2022/05/19 08:55 LIRH 190855Z 15004KT CAVOK 23/10 Q1024
LIRL - Latina (it-Afb), Italy
Distance from station: OSO 40km
Dati ricevuti: 19/05/2022 10:55
Sereno
Sereno
 Vento da varies
Vento: varies 6 km/h
Temperatura: 26°C
P.to Rugiada: 9°C
Umidità: 34%
Barometro: 1024 hPa
Summary: Sereno
Visibility: greater than 10 km
2022/05/19 08:55 LIRL 190855Z VRB03KT CAVOK 26/09 Q1024
 
LIRG - Guidonia (it-Afb, Italy
Distance from station: NO 63km
Dati ricevuti: 19/05/2022 10:55
Sereno
Sereno
 Vento da SO
Vento: SO 7 km/h
Temperatura: 24°C
P.to Rugiada: 10°C
Umidità: 41%
Barometro: 1024 hPa
Summary: Sereno
Visibility: greater than 10 km
2022/05/19 08:55 LIRG 190855Z 22004KT 180V280 CAVOK 24/10 Q1024
LIRA - Ciampino(It-Afb/, Italy
Distance from station: ONO 64km
Dati ricevuti: 19/05/2022 11:20
Sereno
Sereno
 Vento da NO
Vento: NO 11 km/h
Temperatura: 25°C
P.to Rugiada: 8°C
Umidità: 34%
Barometro: 1025 hPa
Summary: Sereno
Visibility: greater than 10 km
2022/05/19 09:20 LIRA 190920Z 32006KT 280V360 CAVOK 25/08 Q1025
 
LIRU - Roma/Urbe (it-Af, Italy
Distance from station: ONO 76km
Dati ricevuti: 19/05/2022 10:50
Sereno
Sereno
 Vento da NNO
Vento: NNO 7 km/h
Temperatura: 25°C
P.to Rugiada: 11°C
Umidità: 42%
Barometro: 1025 hPa
Summary: Sereno
Visibility: greater than 10 km
2022/05/19 08:50 LIRU 190850Z 34004KT 260V050 CAVOK 25/11 Q1025
LIRE - Pratica Di Mare(, Italy
Distance from station: O 77km
Dati ricevuti: 19/05/2022 10:55
Sereno
Sereno
 Vento da ONO
Vento: ONO 13 km/h
Temperatura: 24°C
P.to Rugiada: 14°C
Umidità: 54%
Barometro: 1024 hPa
Summary: Sereno
Visibility: greater than 10 km
2022/05/19 08:55 LIRE 190855Z 29007KT CAVOK 24/14 Q1024
 
LIQN - Rieti, Italy
Distance from station: NNO 92km
Dati ricevuti: 19/05/2022 10:50
Sereno
Sereno
 Vento da NNO
Vento: NNO 7 km/h
Temperatura: 22°C
P.to Rugiada: 8°C
Umidità: 41%
Barometro: 1026 hPa
Summary: Sereno
Visibility: greater than 10 km
2022/05/19 08:50 LIQN 190850Z 33004KT 250V020 CAVOK 22/08 Q1026
LIRK - Terminillo, Italy
Distance from station: NNO 93km
Dati ricevuti: 19/05/2022 10:55

 Vento da ESE
Vento: ESE 26 km/h
Temperatura: 12°C
P.to Rugiada: -1°C
Umidità: 41%
Barometro: 1030 hPa
2022/05/19 08:55 LIRK 190855Z AUTO 12014KT //// 12/M01 Q1030
 
LIRF - Roma/Fiumicino, Italy
Distance from station: O 94km
Dati ricevuti: 19/05/2022 11:20
Sereno
Sereno
 Vento da NO
Vento: NO 9 km/h
Temperatura: 26°C
P.to Rugiada: 10°C
Umidità: 37%
Barometro: 1025 hPa
Summary: Sereno
Visibility: greater than 10 km
2022/05/19 09:20 LIRF 190920Z 32005KT 270V010 CAVOK 26/10 Q1025 NOSIG
LIRM - Grazzanise (it-A, Italy
Distance from station: SE 94km
Dati ricevuti: 19/05/2022 10:55
Sereno
Sereno
 Vento da N
Vento: N 22 km/h
Temperatura: 25°C
P.to Rugiada: 6°C
Umidità: 30%
Barometro: 1024 hPa
Summary: Sereno
Visibility: greater than 10 km
2022/05/19 08:55 LIRM 190855Z 01012KT CAVOK 25/06 Q1024
 
LIBP - Pescara, Italy
Distance from station: NE 108km
Dati ricevuti: 19/05/2022 11:20
Sereno
Sereno
 Vento da NE
Vento: NE 11 km/h
Temperatura: 23°C
P.to Rugiada: 11°C
Umidità: 47%
Barometro: 1027 hPa
Clouds: Sereno
Visibility: 10 km
2022/05/19 09:20 LIBP 190920Z AUTO 05006KT 010V100 9999 NCD 23/11 Q1027
LIRN - Napoli/Capodichino, Italy
Distance from station: SE 120km
Dati ricevuti: 19/05/2022 11:20
Sereno
Sereno
 Vento da E
Vento: E 33 km/h
Temperatura: 24°C
P.to Rugiada: 5°C
Umidità: 29%
Barometro: 1025 hPa
Summary: Sereno
Visibility: greater than 10 km
2022/05/19 09:20 LIRN 190920Z 08018KT CAVOK 24/05 Q1025 NOSIG
 
LIRV - Viterbo (it-Mil), Italy
Distance from station: NO 133km
Dati ricevuti: 19/05/2022 10:55
Sereno
Sereno
 Vento da NE
Vento: NE 9 km/h
Temperatura: 23°C
P.to Rugiada: 11°C
Umidità: 47%
Barometro: 1025 hPa
Summary: Sereno
Visibility: greater than 10 km
2022/05/19 08:55 LIRV 190855Z 04005KT CAVOK 23/11 Q1025
LIQC - Capri, Italy
Distance from station: SSE 145km
Dati ricevuti: 19/05/2022 10:55
Sereno
Sereno
 Vento da NE
Vento: NE 15 km/h
Temperatura: 21°C
P.to Rugiada: 8°C
Umidità: 43%
Barometro: 1024 hPa
Summary: Sereno
Visibility: greater than 10 km
2022/05/19 08:55 LIQC 190855Z 05008KT CAVOK 21/08 Q1024 RMK SKC QUK 3 QUL 1 NE VIS MAR 35 KM VIS MIN 9999
 
LIRT - Trevico, Italy
Distance from station: ESE 172km
Dati ricevuti: 19/05/2022 10:55
Sereno
Sereno
 Vento da ESE
Vento: ESE 11 km/h
Temperatura: 12°C
P.to Rugiada: 4°C
Umidità: 58%
Barometro: 1026 hPa
Summary: Sereno
Visibility: greater than 10 km
2022/05/19 08:55 LIRT 190855Z 11006KT CAVOK 12/04 Q1026
LIRZ - Perugia, Italy
Distance from station: NNO 172km
Dati ricevuti: 19/05/2022 11:20
Sereno
Sereno
 Vento da NNE
Vento: NNE 20 km/h
Temperatura: 25°C
P.to Rugiada: 1°C
Umidità: 21%
Barometro: 1026 hPa
Clouds: Sereno
Visibility: 10 km
2022/05/19 09:20 LIRZ 190920Z AUTO 02011KT 9999 NCD 25/01 Q1026
 
LIRI - Pontecagnano (af, Italy
Distance from station: SE 177km
Dati ricevuti: 19/05/2022 10:50
Sereno
Sereno
 Vento da ESE
Vento: ESE 26 km/h, Raffica: 46 km/h
Temperatura: 24°C
P.to Rugiada: 7°C
Umidità: 34%
Barometro: 1024 hPa
Summary: Sereno
Visibility: greater than 10 km
2022/05/19 08:50 LIRI 190850Z 11014G25KT 070V150 CAVOK 24/07 Q1024
LIBF - Foggia/Gino Lisa, Italy
Distance from station: E 183km
Dati ricevuti: 19/05/2022 10:50
Sereno
Sereno
 Vento da varies
Vento: varies 7 km/h
Temperatura: 23°C
P.to Rugiada: 5°C
Umidità: 31%
Barometro: 1027 hPa
Summary: Sereno
Visibility: greater than 10 km
2022/05/19 08:50 LIBF 190850Z VRB04KT CAVOK 23/05 Q1027
 
LIQO - Monte Argentario, Italy
Distance from station: ONO 195km
Dati ricevuti: 19/05/2022 10:55

 Vento da varies
Vento: varies 0 km/h
2022/05/19 08:55 LIQO 190855Z AUTO /////KT //// ///// Q////
LIBA - Amendola (it-Afb, Italy
Distance from station: E 198km
Dati ricevuti: 19/05/2022 10:55
Few Clouds
Few Clouds
 Vento da ENE
Vento: ENE 7 km/h
Temperatura: 23°C
P.to Rugiada: 8°C
Umidità: 38%
Barometro: 1026 hPa
Clouds: Few Clouds
Visibility: 10 km
Cloud details: Few Clouds 914 m
2022/05/19 08:55 LIBA 190855Z 06004KT 9999 FEW030 23/08 Q1026
 
LIBN - Lecce (it-Afb), Italy
Dati ricevuti: 19/05/2022 10:55
Few Clouds
Few Clouds
 Vento da NNE
Vento: NNE 17 km/h
Temperatura: 22°C
P.to Rugiada: 12°C
Umidità: 53%
Barometro: 1023 hPa
Clouds: Few Clouds
Visibility: 10 km
Cloud details: Few Clouds 549 m
2022/05/19 08:55 LIBN 190855Z 03009KT 9999 FEW018 22/12 Q1023
LIPY - Ancona-Falconara, Italy
Dati ricevuti: 19/05/2022 11:20
Sereno
Sereno
 Vento da NE
Vento: NE 15 km/h
Temperatura: 22°C
P.to Rugiada: 10°C
Umidità: 47%
Barometro: 1027 hPa
Clouds: Sereno
Visibility: 10 km
2022/05/19 09:20 LIPY 190920Z AUTO 05008KT 9999 NCD 22/10 Q1027
 
LICJ - Palermo-Punta Raisi, Italy
Dati ricevuti: 19/05/2022 11:20
Sereno
Sereno
 Vento da NE
Vento: NE 24 km/h
Temperatura: 21°C
P.to Rugiada: 19°C
Umidità: 88%
Barometro: 1022 hPa
Summary: Sereno
Visibility: greater than 10 km
2022/05/19 09:20 LICJ 190920Z 04013KT CAVOK 21/19 Q1022
LIEB - Capo Bellavista, Italy
Dati ricevuti: 19/05/2022 10:55
Sereno
Sereno
 Vento da ENE
Vento: ENE 19 km/h
Temperatura: 27°C
Indice di Calore: 27°C
P.to Rugiada: 15°C
Umidità: 48%
Barometro: 1023 hPa
Summary: Sereno
Visibility: greater than 10 km
2022/05/19 08:55 LIEB 190855Z 07010KT CAVOK 27/15 Q1023 RMK SKC QUK 1 QUL 0 VIS MAR 30 KM MON LIB VIS MIN 9999
 
LIEC - Capo Carbonara, Italy
Dati ricevuti: 19/05/2022 10:55
Sereno
Sereno
 Vento da E
Vento: E 15 km/h
Temperatura: 26°C
P.to Rugiada: 22°C
Umidità: 79%
Barometro: 1023 hPa
Summary: Sereno
Visibility: greater than 10 km
2022/05/19 08:55 LIEC 190855Z 10008KT CAVOK 26/22 Q1023 RMK SKC QUK 1 QUL 0 VIS MAR 25 KM VIS MIN 9999
LIED - Cagliari-Decimomannu(It-A, Italy
Dati ricevuti: 19/05/2022 10:55
Sereno
Sereno
 Vento da SSE
Vento: SSE 11 km/h
Temperatura: 28°C
P.to Rugiada: 12°C
Umidità: 37%
Barometro: 1023 hPa
Summary: Sereno
Visibility: greater than 10 km
2022/05/19 08:55 LIED 190855Z 15006KT CAVOK 28/12 Q1023
 
LIEE - Cagliari-Elmas(A, Italy
Dati ricevuti: 19/05/2022 11:20
Sereno
Sereno
 Vento da S
Vento: S 11 km/h
Temperatura: 26°C
P.to Rugiada: 12°C
Umidità: 42%
Barometro: 1024 hPa
Summary: Sereno
Visibility: greater than 10 km
2022/05/19 09:20 LIEE 190920Z 19006KT CAVOK 26/12 Q1024
LIEO - Olbia-Costa Smeralda, Italy
Dati ricevuti: 19/05/2022 11:20
Sereno
Sereno
 Vento da ENE
Vento: ENE 15 km/h
Temperatura: 25°C
P.to Rugiada: 15°C
Umidità: 54%
Barometro: 1024 hPa
Summary: Sereno
Visibility: greater than 10 km
2022/05/19 09:20 LIEO 190920Z 07008KT 040V120 CAVOK 25/15 Q1024
 
LIEA - Alghero, Italy
Dati ricevuti: 19/05/2022 11:20
Sereno
Sereno
 Vento da O
Vento: O 7 km/h
Temperatura: 28°C
Indice di Calore: 28°C
P.to Rugiada: 15°C
Umidità: 45%
Barometro: 1023 hPa
Summary: Sereno
Visibility: greater than 10 km
2022/05/19 09:20 LIEA 190920Z 28004KT 230V350 CAVOK 28/15 Q1023
LICA - Catanzaro-Lamezia Terme, Italy
Dati ricevuti: 19/05/2022 11:20
Sereno
Sereno
 Vento da O
Vento: O 19 km/h
Temperatura: 24°C
P.to Rugiada: 12°C
Umidità: 47%
Barometro: 1022 hPa
Clouds: Sereno
Visibility: 10 km
2022/05/19 09:20 LICA 190920Z AUTO 26010KT 9999 NCD 24/12 Q1022
 
LIBQ - Cosenza-Monte Scuro, Italy
Dati ricevuti: 19/05/2022 10:55
Sereno
Sereno
 Vento da E
Vento: E 26 km/h
Temperatura: 9°C
Temperatura del Vento: 6°C
P.to Rugiada: -1°C
Umidità: 50%
Barometro: 1026 hPa
Summary: Sereno
Visibility: greater than 10 km
2022/05/19 08:55 LIBQ 190855Z 08014KT CAVOK 09/M01 Q1026
LICR - Reggio Calabria, Italy
Dati ricevuti: 19/05/2022 11:20
Sereno
Sereno
 Vento da NNO
Vento: NNO 24 km/h
Temperatura: 24°C
P.to Rugiada: 17°C
Umidità: 65%
Barometro: 1023 hPa
Clouds: Sereno
Visibility: 10 km
2022/05/19 09:20 LICR 190920Z AUTO 34013KT 9999 NCD 24/17 Q1023
 
LIBV - Bari-Gioia Del Colle, Italy
Dati ricevuti: 19/05/2022 10:55
Sereno
Sereno
 Vento da NNE
Vento: NNE 22 km/h
Temperatura: 19°C
P.to Rugiada: 4°C
Umidità: 37%
Barometro: 1025 hPa
Summary: Sereno
Visibility: greater than 10 km
2022/05/19 08:55 LIBV 190855Z 03012KT 350V060 CAVOK 19/04 Q1025
LIBD - Bari-Palese Macchie, Italy
Dati ricevuti: 19/05/2022 11:20
Sereno
Sereno
 Vento da ENE
Vento: ENE 20 km/h
Temperatura: 22°C
P.to Rugiada: 4°C
Umidità: 31%
Barometro: 1026 hPa
Summary: Sereno
Visibility: greater than 10 km
2022/05/19 09:20 LIBD 190920Z 07011KT 040V100 CAVOK 22/04 Q1026
 
LIBR - Brindisi-Casale, Italy
Dati ricevuti: 19/05/2022 11:20
Sereno
Sereno
 Vento da ENE
Vento: ENE 30 km/h
Temperatura: 21°C
P.to Rugiada: 9°C
Umidità: 46%
Barometro: 1025 hPa
Summary: Sereno
Visibility: greater than 10 km
2022/05/19 09:20 LIBR 190920Z 06016KT CAVOK 21/09 Q1025
LIRT - Trevico, Italy
Dati ricevuti: 19/05/2022 10:55
Sereno
Sereno
 Vento da ESE
Vento: ESE 11 km/h
Temperatura: 12°C
P.to Rugiada: 4°C
Umidità: 58%
Barometro: 1026 hPa
Summary: Sereno
Visibility: greater than 10 km
2022/05/19 08:55 LIRT 190855Z 11006KT CAVOK 12/04 Q1026
 
LICB - Comiso, Italy
Dati ricevuti: 19/05/2022 11:20
Few Clouds
Few Clouds
 Vento da SSO
Vento: SSO 11 km/h
Temperatura: 25°C
P.to Rugiada: 12°C
Umidità: 44%
Barometro: 1023 hPa
Clouds: Few Clouds
Visibility: 10 km
Cloud details: Few Clouds 1951 m
2022/05/19 09:20 LICB 190920Z AUTO 20006KT 130V250 9999 FEW064/// 25/12 Q1023
LICL - Gela, Italy
Dati ricevuti: 19/05/2022 10:55
Sereno
Sereno
 Vento da SSO
Vento: SSO 11 km/h
Temperatura: 21°C
P.to Rugiada: 15°C
Umidità: 69%
Barometro: 1020 hPa
Summary: Sereno
Visibility: greater than 10 km
2022/05/19 08:55 LICL 190855Z 20006KT 150V300 CAVOK 21/15 Q1020 RMK SKC QUK 0 QUL 0 VIS MAR 15 KM VIS MIN 9999
 
LIBN - Lecce (it-Afb), Italy
Dati ricevuti: 19/05/2022 10:55
Few Clouds
Few Clouds
 Vento da NNE
Vento: NNE 17 km/h
Temperatura: 22°C
P.to Rugiada: 12°C
Umidità: 53%
Barometro: 1023 hPa
Clouds: Few Clouds
Visibility: 10 km
Cloud details: Few Clouds 549 m
2022/05/19 08:55 LIBN 190855Z 03009KT 9999 FEW018 22/12 Q1023
LICJ - Palermo-Punta Raisi, Italy
Dati ricevuti: 19/05/2022 11:20
Sereno
Sereno
 Vento da NE
Vento: NE 24 km/h
Temperatura: 21°C
P.to Rugiada: 19°C
Umidità: 88%
Barometro: 1022 hPa
Summary: Sereno
Visibility: greater than 10 km
2022/05/19 09:20 LICJ 190920Z 04013KT CAVOK 21/19 Q1022
 
LICZ - Catania-Sigonella (nas), Italy
Dati ricevuti: 19/05/2022 10:55
Parz. nuvoloso
Parz. nuvoloso
 Vento da E
Vento: E 13 km/h
Temperatura: 25°C
P.to Rugiada: 19°C
Umidità: 69%
Barometro: 1021 hPa
Clouds: Parz. nuvoloso
Visibility: 10 km
Cloud details: Few Clouds 914 m
Parz. nuvoloso 1829 m
2022/05/19 08:55 LICZ 190855Z 10007KT 9999 FEW030 SCT060 25/19 Q1021
LICC - Catania-Fontanarossa, Italy
Dati ricevuti: 19/05/2022 11:20
Few Clouds
Few Clouds
 Vento da E
Vento: E 15 km/h
Temperatura: 24°C
P.to Rugiada: 15°C
Umidità: 57%
Barometro: 1022 hPa
Clouds: Few Clouds
Visibility: 10 km
Cloud details: Few Clouds 2134 m
2022/05/19 09:20 LICC 190920Z 09008KT 060V130 9999 FEW070 24/15 Q1022
 
LICT - Trapani-Birgi (a, Italy
Dati ricevuti: 19/05/2022 10:55
Sereno
Sereno
 Vento da N
Vento: N 19 km/h
Temperatura: 24°C
P.to Rugiada: 18°C
Umidità: 69%
Barometro: 1022 hPa
Summary: Sereno
Visibility: greater than 10 km
2022/05/19 08:55 LICT 190855Z 35010KT CAVOK 24/18 Q1022
LICD - Agrigento-Lampedusa, Italy
Dati ricevuti: 19/05/2022 11:20
Sereno
Sereno
 Vento da E
Vento: E 15 km/h
Temperatura: 22°C
P.to Rugiada: 19°C
Umidità: 83%
Barometro: 1022 hPa
Clouds: Sereno
Visibility: 10 km
2022/05/19 09:20 LICD 190920Z AUTO 08008KT 9999 NCD 22/19 Q1022
 
LICG - Pantelleria(It-A, Italy
Dati ricevuti: 19/05/2022 10:50
Sereno
Sereno
 Vento da ENE
Vento: ENE 6 km/h
Temperatura: 25°C
P.to Rugiada: 11°C
Umidità: 42%
Barometro: 1023 hPa
Summary: Sereno
Visibility: greater than 10 km
2022/05/19 08:50 LICG 190850Z 07003KT CAVOK 25/11 Q1023
LIPX - Villafranca(Cv/M, Italy
Dati ricevuti: 19/05/2022 11:20
Sereno
Sereno
 Vento da SSE
Vento: SSE 7 km/h
Temperatura: 24°C
P.to Rugiada: 8°C
Umidità: 36%
Barometro: 1027 hPa
Summary: Sereno
Visibility: greater than 10 km
2022/05/19 09:20 LIPX 190920Z 16004KT 120V220 CAVOK 24/08 Q1027
 
LIPO - Brescia/Montichiari, Italy
Dati ricevuti: 19/05/2022 11:20
Sereno
Sereno
 Vento da S
Vento: S 7 km/h
Temperatura: 24°C
P.to Rugiada: 10°C
Umidità: 41%
Barometro: 1027 hPa
Clouds: Sereno
Visibility: 10 km
2022/05/19 09:20 LIPO 190920Z AUTO 17004KT 130V210 9999 NCD 24/10 Q1027
LIPL - Ghedi (it-Afb), Italy
Dati ricevuti: 19/05/2022 10:55
Sereno
Sereno
 Vento da ESE
Vento: ESE 7 km/h
Temperatura: 22°C
P.to Rugiada: 15°C
Umidità: 65%
Barometro: 1027 hPa
Summary: Sereno
Visibility: greater than 10 km
2022/05/19 08:55 LIPL 190855Z 11004KT CAVOK 22/15 Q1027
 
LIMP - Parma, Italy
Dati ricevuti: 19/05/2022 10:50
Sereno
Sereno
 Vento da E
Vento: E 13 km/h
Temperatura: 24°C
P.to Rugiada: 10°C
Umidità: 41%
Barometro: 1027 hPa
Summary: Sereno
Visibility: greater than 10 km
2022/05/19 08:50 LIMP 190850Z 09007KT 060V130 CAVOK 24/10 Q1027
LIMS - Piacenza (it-Afb, Italy
Dati ricevuti: 19/05/2022 10:55
Sereno
Sereno
 Vento da ESE
Vento: ESE 13 km/h
Temperatura: 23°C
P.to Rugiada: 13°C
Umidità: 53%
Barometro: 1026 hPa
Summary: Sereno
Visibility: greater than 10 km
2022/05/19 08:55 LIMS 190855Z 11007KT 060V150 CAVOK 23/13 Q1026
 
LIPF - Ferrara (aut), Italy
Dati ricevuti: 19/05/2022 10:55
Sereno
Sereno
 Vento da varies
Vento: varies 0 km/h
Temperatura: 24°C
P.to Rugiada: 13°C
Umidità: 50%
Barometro: 1027 hPa
Summary: Sereno
Visibility: greater than 10 km
2022/05/19 08:55 LIPF 190855Z /////KT CAVOK 24/13 Q1027
LIPE - Bologna/Borgo (a, Italy
Dati ricevuti: 19/05/2022 11:20
Sereno
Sereno
 Vento da ENE
Vento: ENE 13 km/h
Temperatura: 24°C
P.to Rugiada: 11°C
Umidità: 44%
Barometro: 1027 hPa
Summary: Sereno
Visibility: greater than 10 km
2022/05/19 09:20 LIPE 190920Z 07007KT 030V100 CAVOK 24/11 Q1027
 
LIPU - Padova (civ/It-A, Italy
Dati ricevuti: 19/05/2022 10:50
Sereno
Sereno
 Vento da varies
Vento: varies 6 km/h
Temperatura: 23°C
P.to Rugiada: 12°C
Umidità: 50%
Barometro: 1030 hPa
Summary: Sereno
Visibility: greater than 10 km
2022/05/19 08:50 LIPU 190850Z VRB03KT CAVOK 23/12 Q1030
LIME - Bergamo/Orio Ser, Italy
Dati ricevuti: 19/05/2022 11:20
Sereno
Sereno
 Vento da OSO
Vento: OSO 6 km/h
Temperatura: 23°C
P.to Rugiada: 9°C
Umidità: 41%
Barometro: 1027 hPa
Summary: Sereno
Visibility: greater than 10 km
2022/05/19 09:20 LIME 190920Z 24003KT 180V310 CAVOK 23/09 Q1027 NOSIG
 
LIMT - Cisa Pass, Italy
Dati ricevuti: 23/09/2019 13:55
Non Attivo
Nebbia
Nebbia
 Vento da calm
Vento: Calma
Temperatura: 10°C
P.to Rugiada: 10°C
Umidità: 100%
Barometro: 1014 hPa
Summary: Nebbia
Visibility: 0 km
2019/09/23 11:55 LIMT 231155Z 00000KT 0000 FG VV/// 10/10 Q1014 RMK MON INVIS VAL INVIS VIS MIN 0000
LIVC - Cimone Mountain, Italy
Dati ricevuti: 19/05/2022 10:55

 Vento da NNE
Vento: NNE 7 km/h
Temperatura: 11°C
P.to Rugiada: 3°C
Umidità: 58%
Barometro: 1034 hPa
2022/05/19 08:55 LIVC 190855Z AUTO 02004KT //// 11/03 Q1034
 
LIVP - Paganella Mounta, Italy
Dati ricevuti: 19/05/2022 10:55
Parz. nuvoloso
Parz. nuvoloso
 Vento da O
Vento: O 4 km/h
Temperatura: 10°C
P.to Rugiada: 7°C
Umidità: 82%
Barometro: 1032 hPa
Clouds: Parz. nuvoloso
Visibility: 10 km
Cloud details: Parz. nuvoloso 61 m
Parz. nuvoloso 762 m
2022/05/19 08:55 LIVP 190855Z 27002KT 9999 SCT002 SCT025 10/07 Q1032
LIML - Milano/Linate, Italy
Dati ricevuti: 19/05/2022 11:20
Sereno
Sereno
 Vento da SE
Vento: SE 13 km/h
Temperatura: 25°C
P.to Rugiada: 8°C
Umidità: 34%
Barometro: 1027 hPa
Summary: Sereno
Visibility: greater than 10 km
2022/05/19 09:20 LIML 190920Z 13007KT 090V180 CAVOK 25/08 Q1027 NOSIG
 
LIPS - Istrana (it-Afb), Italy
Dati ricevuti: 19/05/2022 10:55
Sereno
Sereno
 Vento da varies
Vento: varies 0 km/h
Temperatura: 22°C
P.to Rugiada: 11°C
Umidità: 50%
Barometro: 1027 hPa
Summary: Sereno
Visibility: greater than 10 km
2022/05/19 08:55 LIPS 190855Z /////KT CAVOK 22/11 Q1027
LIPH - Treviso(Civ/It-A, Italy
Dati ricevuti: 19/05/2022 11:20
Sereno
Sereno
 Vento da varies
Vento: varies 4 km/h
Temperatura: 24°C
P.to Rugiada: 8°C
Umidità: 36%
Barometro: 1027 hPa
Summary: Sereno
Visibility: greater than 10 km
2022/05/19 09:20 LIPH 190920Z VRB02KT CAVOK 24/08 Q1027
 
LIPZ - Venezia/Tessera, Italy
Dati ricevuti: 19/05/2022 11:20
Sereno
Sereno
 Vento da SE
Vento: SE 7 km/h
Temperatura: 22°C
P.to Rugiada: 10°C
Umidità: 47%
Barometro: 1027 hPa
Summary: Sereno
Visibility: greater than 10 km
2022/05/19 09:20 LIPZ 190920Z 14004KT 100V190 CAVOK 22/10 Q1027 NOSIG
LIQW - Sarzana/Luni, Italy
Dati ricevuti: 19/05/2022 10:55
Sereno
Sereno
 Vento da varies
Vento: varies 0 km/h
Temperatura: 24°C
P.to Rugiada: 16°C
Umidità: 61%
Barometro: 1025 hPa
Summary: Sereno
Visibility: greater than 10 km
2022/05/19 08:55 LIQW 190855Z /////KT CAVOK 24/16 Q1025
 
LIVR - Rolle Pass, Italy
Dati ricevuti: 19/05/2022 10:55
Parz. nuvoloso
Parz. nuvoloso
 Vento da ONO
Vento: ONO 7 km/h
Temperatura: 10°C
Temperatura del Vento: 9°C
P.to Rugiada: 7°C
Umidità: 82%
Barometro: 1031 hPa
Clouds: Parz. nuvoloso
Visibility: 10 km
Cloud details: Parz. nuvoloso 914 m
2022/05/19 08:55 LIVR 190855Z 29004KT 9999 SCT030 10/07 Q1031
LIPK - Forli (civ/It-Af, Italy
Dati ricevuti: 19/05/2022 10:50
Sereno
Sereno
 Vento da varies
Vento: varies 4 km/h
Temperatura: 23°C
P.to Rugiada: 12°C
Umidità: 50%
Barometro: 1027 hPa
Summary: Sereno
Visibility: greater than 10 km
2022/05/19 08:50 LIPK 190850Z VRB02KT CAVOK 23/12 Q1027
 
LIMV - Giovi Pass, Italy
Dati ricevuti: 19/05/2022 10:55
Sereno
Sereno
 Vento da varies
Vento: varies 0 km/h
Temperatura: 20°C
P.to Rugiada: 11°C
Umidità: 56%
Barometro: 1027 hPa
Summary: Sereno
Visibility: greater than 10 km
2022/05/19 08:55 LIMV 190855Z /////KT CAVOK 20/11 Q1027
LIPB - Bolzano(Civ/It-A, Italy
Dati ricevuti: 19/05/2022 10:50
Few Clouds
Few Clouds
 Vento da SE
Vento: SE 7 km/h
Temperatura: 25°C
P.to Rugiada: 12°C
Umidità: 44%
Barometro: 1027 hPa
Clouds: Few Clouds
Visibility: 10 km
Cloud details: Few Clouds 1829 m
2022/05/19 08:50 LIPB 190850Z 13004KT 050V210 9999 FEW060 25/12 Q1027
 
LIVD - Bolzano-Dobbiaco, Italy
Dati ricevuti: 19/05/2022 10:55
Few Clouds
Few Clouds
 Vento da varies
Vento: varies 0 km/h
Temperatura: 18°C
P.to Rugiada: 9°C
Umidità: 56%
Barometro: 1029 hPa
Clouds: Few Clouds
Visibility: 10 km
Cloud details: Few Clouds 914 m
2022/05/19 08:55 LIVD 190855Z /////KT 9999 FEW030 18/09 Q1029
LIVE - Bolzano-Passo Resia, Italy
Dati ricevuti: 19/05/2022 10:55
Parz. nuvoloso
Parz. nuvoloso
 Vento da SSO
Vento: SSO 15 km/h
Temperatura: 13°C
P.to Rugiada: 11°C
Umidità: 88%
Barometro: 1029 hPa
Clouds: Parz. nuvoloso
Visibility: 10 km
Cloud details: Parz. nuvoloso 610 m
2022/05/19 08:55 LIVE 190855Z 20008KT 9999 SCT020 13/11 Q1029
 
LIMH - Aosta-Pian Rosa (mtn T, Italy
Dati ricevuti: 19/05/2022 10:55

 Vento da SSO
Vento: SSO 6 km/h
Temperatura: 1°C
P.to Rugiada: 0°C
Umidità: 93%
Barometro: 1038 hPa
2022/05/19 08:55 LIMH 190855Z AUTO 20003KT //// 01/M00 Q1038
LIMZ - Cuneo/Levaldigi, Italy
Dati ricevuti: 19/05/2022 11:20
Sereno
Sereno
 Vento da varies
Vento: varies 7 km/h
Temperatura: 23°C
P.to Rugiada: 13°C
Umidità: 53%
Barometro: 1028 hPa
Clouds: Sereno
Visibility: 10 km
2022/05/19 09:20 LIMZ 190920Z AUTO VRB04KT 9999 NCD 23/13 Q1028
 
LIMK - Torino-Bric Della Croce, Italy
Dati ricevuti: 19/05/2022 10:55
Sereno
Sereno
 Vento da N
Vento: N 13 km/h
Temperatura: 19°C
P.to Rugiada: 11°C
Umidità: 60%
Barometro: 1028 hPa
Summary: Sereno
Visibility: greater than 10 km
2022/05/19 08:55 LIMK 190855Z 36007KT CAVOK 19/11 Q1028
LIMN - Novara-Cameri (it-Afb), Italy
Dati ricevuti: 19/05/2022 10:55
Sereno
Sereno
 Vento da ESE
Vento: ESE 13 km/h
Temperatura: 24°C
P.to Rugiada: 8°C
Umidità: 36%
Barometro: 1026 hPa
Summary: Sereno
Visibility: greater than 10 km
2022/05/19 08:55 LIMN 190855Z 12007KT 070V160 CAVOK 24/08 Q1026
 
LIPA - Pordenone-Aviano (it/Us-Af, Italy
Dati ricevuti: 19/05/2022 10:55
Few Clouds
Few Clouds
 Vento da varies
Vento: varies 0 km/h
Temperatura: 22°C
P.to Rugiada: 10°C
Umidità: 47%
Barometro: 1027 hPa
Clouds: Few Clouds
Visibility: 10 km
Cloud details: Few Clouds 2438 m
2022/05/19 08:55 LIPA 190855Z /////KT 9999 FEW080 22/10 Q1027
LIPI - Udine-Rivolto (it-Afb), Italy
Dati ricevuti: 19/05/2022 10:55
Sereno
Sereno
 Vento da E
Vento: E 6 km/h
Temperatura: 22°C
P.to Rugiada: 9°C
Umidità: 44%
Barometro: 1027 hPa
Summary: Sereno
Visibility: greater than 10 km
2022/05/19 08:55 LIPI 190855Z 09003KT CAVOK 22/09 Q1027
 
LIVO - Udine-Tarvisio, Italy
Dati ricevuti: 19/05/2022 10:55
Sereno
Sereno
 Vento da calm
Vento: Calma
Temperatura: 19°C
P.to Rugiada: 11°C
Umidità: 60%
Barometro: 1027 hPa
Summary: Sereno
Visibility: greater than 10 km
2022/05/19 08:55 LIVO 190855Z 00000KT CAVOK 19/11 Q1027
LIPQ - Trieste-Ronchi Dei Legionari, Italy
Dati ricevuti: 19/05/2022 11:20
Sereno
Sereno
 Vento da SSE
Vento: SSE 9 km/h
Temperatura: 24°C
P.to Rugiada: 3°C
Umidità: 25%
Barometro: 1027 hPa
Clouds: Sereno
Visibility: 10 km
2022/05/19 09:20 LIPQ 190920Z AUTO 16005KT 060V230 9999 NCD 24/03 Q1027
 
LIVT - Trieste, Italy
Dati ricevuti: 19/05/2022 10:55
Sereno
Sereno
 Vento da ONO
Vento: ONO 2 km/h
Temperatura: 21°C
P.to Rugiada: 14°C
Umidità: 64%
Barometro: 1027 hPa
Summary: Sereno
Visibility: greater than 10 km
2022/05/19 08:55 LIVT 190855Z 30001KT CAVOK 21/14 Q1027
LIRQ - Firenze/Peretola, Italy
Dati ricevuti: 19/05/2022 11:20
Sereno
Sereno
 Vento da NE
Vento: NE 15 km/h
Temperatura: 27°C
P.to Rugiada: 8°C
Umidità: 30%
Barometro: 1025 hPa
Summary: Sereno
Visibility: greater than 10 km
2022/05/19 09:20 LIRQ 190920Z 05008KT 010V110 CAVOK 27/08 Q1025
 
LIPK - Forli (civ/It-Af, Italy
Dati ricevuti: 19/05/2022 10:50
Sereno
Sereno
 Vento da varies
Vento: varies 4 km/h
Temperatura: 23°C
P.to Rugiada: 12°C
Umidità: 50%
Barometro: 1027 hPa
Summary: Sereno
Visibility: greater than 10 km
2022/05/19 08:50 LIPK 190850Z VRB02KT CAVOK 23/12 Q1027
LIRS - Grosseto (it-Afb, Italy
Dati ricevuti: 19/05/2022 10:55
Sereno
Sereno
 Vento da E
Vento: E 9 km/h
Temperatura: 25°C
P.to Rugiada: 13°C
Umidità: 47%
Barometro: 1024 hPa
Summary: Sereno
Visibility: greater than 10 km
2022/05/19 08:55 LIRS 190855Z 10005KT 050V160 CAVOK 25/13 Q1024
 
LIRP - Pisa (civ/It-Afb, Italy
Dati ricevuti: 19/05/2022 11:15
Sereno
Sereno
 Vento da E
Vento: E 9 km/h
Temperatura: 25°C
P.to Rugiada: 10°C
Umidità: 39%
Barometro: 1025 hPa
Summary: Sereno
Visibility: greater than 10 km
2022/05/19 09:15 LIRP 190915Z 08005KT CAVOK 25/10 Q1025 NOSIG
LIVF - Frontone, Italy
Dati ricevuti: 19/05/2022 10:55
Sereno
Sereno
 Vento da varies
Vento: varies 0 km/h
Temperatura: 20°C
P.to Rugiada: 10°C
Umidità: 53%
Barometro: 1026 hPa
Summary: Sereno
Visibility: greater than 10 km
2022/05/19 08:55 LIVF 190855Z VRB00KT CAVOK 20/10 Q1026
 
LIPC - Cervia (it-Afb), Italy
Dati ricevuti: 19/05/2022 10:55
Sereno
Sereno
 Vento da ESE
Vento: ESE 7 km/h
Temperatura: 23°C
P.to Rugiada: 13°C
Umidità: 53%
Barometro: 1027 hPa
Summary: Sereno
Visibility: greater than 10 km
2022/05/19 08:55 LIPC 190855Z 11004KT CAVOK 23/13 Q1027
LIPR - Rimini (civ/It-A, Italy
Dati ricevuti: 19/05/2022 11:20
Sereno
Sereno
 Vento da ENE
Vento: ENE 11 km/h
Temperatura: 22°C
P.to Rugiada: 14°C
Umidità: 61%
Barometro: 1027 hPa
Summary: Sereno
Visibility: greater than 10 km
2022/05/19 09:20 LIPR 190920Z 06006KT 010V100 CAVOK 22/14 Q1027
 
LIRX - Monte Calamita, Italy
Dati ricevuti: 19/05/2022 10:55
Sereno
Sereno
 Vento da E
Vento: E 17 km/h
Temperatura: 23°C
P.to Rugiada: 10°C
Umidità: 44%
Barometro: 1024 hPa
Summary: Sereno
Visibility: greater than 10 km
2022/05/19 08:55 LIRX 190855Z 09009KT CAVOK 23/10 Q1024
LIVM - Punta Marina/Rav, Italy
Dati ricevuti: 19/05/2022 10:55
Sereno
Sereno
 Vento da ESE
Vento: ESE 9 km/h
Temperatura: 21°C
P.to Rugiada: 14°C
Umidità: 64%
Barometro: 1027 hPa
Summary: Sereno
Visibility: greater than 10 km
2022/05/19 08:55 LIVM 190855Z 11005KT 080V140 CAVOK 21/14 Q1027